createdAt,value
2023-08-09T00:00:39.963Z,13.77
2023-08-09T00:03:08.914Z,13.73
2023-08-09T00:05:37.408Z,13.64
2023-08-09T00:08:05.753Z,13.56
2023-08-09T00:10:37.796Z,13.53
2023-08-09T00:13:06.100Z,13.49
2023-08-09T00:15:34.539Z,13.45
2023-08-09T00:18:03.833Z,13.41
2023-08-09T00:20:34.137Z,13.41
2023-08-09T00:23:03.374Z,13.36
2023-08-09T00:25:33.481Z,13.31
2023-08-09T00:28:02.681Z,13.28
2023-08-09T00:30:31.621Z,13.23
2023-08-09T00:33:00.492Z,13.18
2023-08-09T00:35:29.641Z,13.15
2023-08-09T00:37:58.241Z,13.10
2023-08-09T00:40:27.833Z,13.05
2023-08-09T00:42:56.105Z,13.01
2023-08-09T00:45:25.085Z,13.00
2023-08-09T00:47:53.713Z,12.96
2023-08-09T00:50:22.987Z,12.91
2023-08-09T00:52:52.193Z,12.87
2023-08-09T00:55:20.923Z,12.83
2023-08-09T00:57:51.533Z,12.80
2023-08-09T01:00:20.313Z,12.77
2023-08-09T01:02:49.638Z,12.75
2023-08-09T01:05:19.222Z,12.72
2023-08-09T01:08:03.306Z,12.67
2023-08-09T01:10:43.097Z,12.66
2023-08-09T01:13:16.287Z,12.62
2023-08-09T01:15:45.485Z,12.59
2023-08-09T01:18:14.677Z,12.56
2023-08-09T01:20:43.446Z,12.54
2023-08-09T01:23:22.056Z,12.49
2023-08-09T01:25:51.368Z,12.44
2023-08-09T01:28:20.430Z,12.42
2023-08-09T01:30:51.474Z,12.41
2023-08-09T01:33:20.424Z,12.40
2023-08-09T01:36:09.132Z,12.37
2023-08-09T01:38:44.255Z,12.38
2023-08-09T01:41:14.019Z,12.37
2023-08-09T01:43:43.145Z,12.37
2023-08-09T01:46:11.920Z,12.37
2023-08-09T01:48:39.873Z,12.36
2023-08-09T01:51:08.190Z,12.35
2023-08-09T01:53:36.441Z,12.34
2023-08-09T01:56:06.908Z,12.31
2023-08-09T01:58:35.854Z,12.27
2023-08-09T02:01:05.176Z,12.21
2023-08-09T02:03:35.527Z,12.21
2023-08-09T02:06:04.197Z,12.23
2023-08-09T02:08:33.381Z,12.25
2023-08-09T02:11:01.748Z,12.30
2023-08-09T02:13:30.926Z,12.34
2023-08-09T02:15:59.309Z,12.37
2023-08-09T02:18:28.498Z,12.44
2023-08-09T02:20:56.726Z,12.51
2023-08-09T02:23:25.464Z,12.58
2023-08-09T02:25:55.220Z,12.64
2023-08-09T02:28:25.039Z,12.70
2023-08-09T02:30:54.758Z,12.77
2023-08-09T02:33:23.069Z,12.81
2023-08-09T02:35:55.569Z,12.85
2023-08-09T02:38:25.997Z,12.88
2023-08-09T02:40:55.044Z,12.90
2023-08-09T02:43:27.984Z,12.91
2023-08-09T02:45:56.537Z,12.92
2023-08-09T02:48:27.010Z,12.93
2023-08-09T02:50:55.330Z,12.93
2023-08-09T02:53:29.542Z,12.93
2023-08-09T02:55:58.010Z,12.91
2023-08-09T02:58:27.058Z,12.93
2023-08-09T03:00:55.249Z,12.94
2023-08-09T03:03:24.153Z,12.95
2023-08-09T03:05:52.564Z,12.97
2023-08-09T03:08:21.501Z,12.95
2023-08-09T03:10:51.402Z,12.96
2023-08-09T03:13:20.468Z,12.94
2023-08-09T03:15:50.008Z,12.94
2023-08-09T03:18:19.419Z,12.98
2023-08-09T03:20:49.261Z,13.01
2023-08-09T03:23:19.199Z,13.01
2023-08-09T03:25:49.509Z,13.01
2023-08-09T03:28:19.240Z,12.96
2023-08-09T03:30:48.484Z,12.95
2023-08-09T03:33:20.491Z,12.98
2023-08-09T03:35:49.440Z,12.97
2023-08-09T03:38:19.361Z,12.99
2023-08-09T03:40:47.573Z,12.93
2023-08-09T03:43:16.154Z,12.95
2023-08-09T03:45:45.318Z,12.95
2023-08-09T03:48:13.710Z,12.93
2023-08-09T03:50:42.720Z,12.91
2023-08-09T03:53:11.085Z,12.88
2023-08-09T03:55:43.460Z,12.92
2023-08-09T03:58:11.753Z,12.92
2023-08-09T04:00:39.957Z,12.94
2023-08-09T04:03:08.340Z,12.90
2023-08-09T04:05:37.060Z,12.89
2023-08-09T04:08:08.115Z,12.88
2023-08-09T04:10:38.072Z,12.87
2023-08-09T04:13:06.311Z,12.85
2023-08-09T04:15:35.527Z,12.90
2023-08-09T04:18:03.826Z,12.90
2023-08-09T04:20:32.851Z,12.89
2023-08-09T04:23:04.715Z,12.91
2023-08-09T04:25:32.902Z,12.91
2023-08-09T04:28:01.135Z,12.91
2023-08-09T04:30:29.827Z,12.91
2023-08-09T04:32:58.078Z,12.92
2023-08-09T04:35:26.335Z,12.90
2023-08-09T04:37:54.522Z,12.87
2023-08-09T04:40:22.698Z,12.87
2023-08-09T04:42:51.235Z,12.94
2023-08-09T04:45:20.052Z,12.97
2023-08-09T04:47:49.405Z,12.99
2023-08-09T04:50:17.631Z,13.07
2023-08-09T04:52:45.833Z,13.13
2023-08-09T04:55:14.101Z,13.13
2023-08-09T04:57:43.383Z,13.15
2023-08-09T05:00:12.303Z,13.18
2023-08-09T05:02:41.278Z,13.25
2023-08-09T05:05:10.500Z,13.26
2023-08-09T05:07:40.590Z,13.30
2023-08-09T05:10:11.857Z,13.32
2023-08-09T05:12:40.131Z,13.35
2023-08-09T05:15:09.255Z,13.39
2023-08-09T05:17:37.605Z,13.47
2023-08-09T05:20:06.246Z,13.53
2023-08-09T05:22:34.945Z,13.61
2023-08-09T05:25:03.176Z,13.68
2023-08-09T05:27:31.447Z,13.76
2023-08-09T05:29:59.686Z,13.79
2023-08-09T05:32:27.961Z,13.85
2023-08-09T05:34:56.246Z,13.95
2023-08-09T05:37:24.565Z,14.11
2023-08-09T05:39:52.806Z,14.22
2023-08-09T05:42:21.149Z,14.33
2023-08-09T05:44:49.311Z,14.40
2023-08-09T05:47:17.518Z,14.45
2023-08-09T05:49:46.204Z,14.51
2023-08-09T05:52:14.068Z,14.56
2023-08-09T05:54:42.283Z,14.57
2023-08-09T05:57:10.793Z,14.53
2023-08-09T05:59:38.973Z,14.58
2023-08-09T06:02:08.541Z,14.65
2023-08-09T06:04:36.902Z,14.67
2023-08-09T06:07:05.516Z,14.71
2023-08-09T06:12:16.558Z,14.79
2023-08-09T06:14:44.902Z,14.86
2023-08-09T06:17:13.184Z,14.97
2023-08-09T06:19:41.545Z,15.05
2023-08-09T06:22:10.122Z,15.05
2023-08-09T06:24:38.392Z,15.02
2023-08-09T06:27:06.751Z,15.15
2023-08-09T06:29:35.063Z,15.39
2023-08-09T06:32:03.333Z,15.49
2023-08-09T06:34:31.646Z,15.88
2023-08-09T06:37:00.150Z,16.23
2023-08-09T06:39:28.853Z,16.01
2023-08-09T06:41:57.212Z,16.05
2023-08-09T06:44:25.513Z,16.15
2023-08-09T06:46:57.497Z,16.56
2023-08-09T06:49:25.801Z,16.92
2023-08-09T06:51:55.787Z,16.81
2023-08-09T06:54:24.112Z,17.20
2023-08-09T06:56:53.026Z,17.36
2023-08-09T06:59:21.461Z,20.13
2023-08-09T07:01:50.249Z,20.00
2023-08-09T07:04:19.972Z,18.79
2023-08-09T07:06:48.396Z,18.69
2023-08-09T07:09:19.592Z,18.72
2023-08-09T07:11:48.014Z,19.68
2023-08-09T07:14:16.316Z,19.22
2023-08-09T07:16:44.730Z,20.35
2023-08-09T07:19:12.983Z,20.15
2023-08-09T07:21:41.468Z,19.44
2023-08-09T07:24:09.349Z,18.96
2023-08-09T07:26:37.777Z,19.71
2023-08-09T07:29:05.627Z,20.58
2023-08-09T07:31:33.825Z,20.12
2023-08-09T07:34:02.645Z,21.74
2023-08-09T07:36:30.954Z,21.14
2023-08-09T07:39:00.162Z,20.35
2023-08-09T07:41:29.011Z,20.83
2023-08-09T07:43:57.373Z,23.89
2023-08-09T07:46:25.740Z,24.43
2023-08-09T07:48:54.843Z,24.51
2023-08-09T07:51:23.129Z,23.67
2023-08-09T07:53:52.439Z,23.03
2023-08-09T07:56:20.718Z,23.88
2023-08-09T07:58:49.110Z,22.76
2023-08-09T08:01:17.215Z,22.25
2023-08-09T08:03:45.816Z,22.43
2023-08-09T08:06:14.041Z,25.50
2023-08-09T08:08:42.764Z,26.56
2023-08-09T08:11:10.981Z,25.34
2023-08-09T08:13:38.843Z,23.80
2023-08-09T08:16:07.333Z,24.98
2023-08-09T08:18:35.684Z,24.88
2023-08-09T08:21:04.776Z,23.63
2023-08-09T08:23:33.676Z,22.61
2023-08-09T08:26:02.121Z,22.33
2023-08-09T08:28:31.502Z,22.82
2023-08-09T08:31:00.599Z,23.48
2023-08-09T08:33:29.442Z,23.52
2023-08-09T08:36:08.601Z,24.23
2023-08-09T08:38:45.884Z,24.28
2023-08-09T08:41:14.138Z,24.28
2023-08-09T08:43:42.979Z,25.08
2023-08-09T08:46:16.804Z,26.16
2023-08-09T08:48:49.753Z,26.51
2023-08-09T08:51:19.652Z,26.39
2023-08-09T08:53:48.982Z,26.54
2023-08-09T08:56:17.421Z,26.44
2023-08-09T08:58:45.846Z,25.51
2023-08-09T09:01:14.254Z,24.88
2023-08-09T09:03:42.592Z,24.36
2023-08-09T09:06:11.477Z,23.94
2023-08-09T09:08:43.932Z,24.46
2023-08-09T09:11:23.166Z,25.77
2023-08-09T09:13:53.046Z,25.44
2023-08-09T09:16:22.637Z,23.94
2023-08-09T09:18:51.190Z,23.46
2023-08-09T09:21:20.441Z,24.13
2023-08-09T09:23:48.749Z,24.52
2023-08-09T09:26:21.174Z,24.44
2023-08-09T09:28:50.354Z,23.42
2023-08-09T09:31:19.036Z,22.69
2023-08-09T09:33:52.980Z,22.21
2023-08-09T09:36:21.327Z,22.79
2023-08-09T09:38:57.305Z,24.70
2023-08-09T09:41:25.519Z,26.01
2023-08-09T09:43:54.022Z,26.86
2023-08-09T09:49:04.745Z,26.89
2023-08-09T09:51:33.685Z,25.22
2023-08-09T09:54:01.973Z,24.23
2023-08-09T09:56:30.230Z,23.64
2023-08-09T09:58:58.472Z,22.89
2023-08-09T10:01:29.293Z,22.14
2023-08-09T10:04:08.642Z,21.95
2023-08-09T10:06:40.918Z,23.21
2023-08-09T10:09:11.015Z,23.81
2023-08-09T10:11:40.612Z,23.45
2023-08-09T10:14:10.812Z,22.88
2023-08-09T10:16:40.130Z,22.34
2023-08-09T10:19:17.368Z,21.91
2023-08-09T10:21:45.628Z,21.70
2023-08-09T10:24:14.779Z,21.68
2023-08-09T10:26:50.150Z,22.03
2023-08-09T10:29:25.490Z,22.07
2023-08-09T10:32:06.540Z,22.56
2023-08-09T10:34:44.489Z,23.63
2023-08-09T10:37:24.063Z,25.09
2023-08-09T10:40:17.632Z,24.89
2023-08-09T10:42:49.513Z,24.13
2023-08-09T10:45:17.766Z,23.30
2023-08-09T10:47:47.237Z,22.53
2023-08-09T10:50:17.930Z,22.15
2023-08-09T10:52:50.542Z,22.13
2023-08-09T10:55:22.653Z,22.23
2023-08-09T10:57:52.620Z,23.04
2023-08-09T11:00:22.416Z,24.98
2023-08-09T11:02:51.635Z,26.44
2023-08-09T11:05:20.941Z,27.25
2023-08-09T11:07:51.767Z,28.23
2023-08-09T11:10:37.687Z,27.30
2023-08-09T11:13:16.807Z,26.33
2023-08-09T11:15:50.094Z,25.06
2023-08-09T11:18:18.470Z,25.63
2023-08-09T11:20:46.741Z,26.04
2023-08-09T11:23:15.194Z,26.76
2023-08-09T11:25:43.723Z,27.28
2023-08-09T11:28:14.965Z,27.41
2023-08-09T11:30:43.795Z,27.71
2023-08-09T11:33:13.268Z,27.75
2023-08-09T11:36:01.814Z,26.60
2023-08-09T11:38:30.084Z,25.60
2023-08-09T11:41:11.060Z,25.33
2023-08-09T11:43:39.606Z,25.60
2023-08-09T11:46:07.882Z,25.74
2023-08-09T11:48:40.116Z,25.74
2023-08-09T11:51:22.101Z,25.78
2023-08-09T11:53:51.603Z,25.60
2023-08-09T11:56:23.878Z,25.41
2023-08-09T11:58:54.762Z,24.63
2023-08-09T12:01:25.372Z,24.41
2023-08-09T12:04:07.513Z,24.89
2023-08-09T12:06:41.324Z,25.51
2023-08-09T12:09:32.140Z,25.54
2023-08-09T12:12:19.740Z,25.50
2023-08-09T12:14:55.961Z,25.56
2023-08-09T12:17:26.813Z,25.72
2023-08-09T12:20:07.832Z,25.73
2023-08-09T12:22:36.130Z,25.65
2023-08-09T12:25:05.562Z,25.50
2023-08-09T12:27:36.049Z,25.36
2023-08-09T12:30:05.660Z,25.35
2023-08-09T12:32:34.495Z,25.78
2023-08-09T12:35:02.762Z,25.89
2023-08-09T12:37:33.711Z,25.73
2023-08-09T12:40:01.980Z,25.78
2023-08-09T12:42:30.323Z,25.75
2023-08-09T12:44:58.504Z,25.56
2023-08-09T12:47:26.410Z,25.60
2023-08-09T12:49:54.579Z,25.32
2023-08-09T12:52:23.769Z,25.33
2023-08-09T12:54:52.901Z,25.21
2023-08-09T13:00:05.645Z,23.88
2023-08-09T13:02:34.022Z,24.01
2023-08-09T13:05:04.827Z,24.44
2023-08-09T13:07:53.301Z,24.26
2023-08-09T13:10:22.239Z,24.21
2023-08-09T13:12:50.458Z,24.36
2023-08-09T13:15:18.871Z,24.55
2023-08-09T13:17:47.618Z,24.63
2023-08-09T13:20:16.407Z,24.42
2023-08-09T13:22:45.231Z,24.45
2023-08-09T13:25:13.638Z,24.43
2023-08-09T13:27:42.124Z,24.48
2023-08-09T13:30:10.917Z,24.12
2023-08-09T13:32:39.421Z,24.09
2023-08-09T13:35:08.937Z,24.04
2023-08-09T13:37:42.823Z,24.11
2023-08-09T13:40:16.275Z,23.98
2023-08-09T13:42:45.011Z,23.90
2023-08-09T13:45:13.231Z,23.92
2023-08-09T13:50:11.312Z,24.11
2023-08-09T13:52:39.560Z,24.29
2023-08-09T13:55:08.019Z,24.35
2023-08-09T13:57:36.843Z,24.02
2023-08-09T14:00:09.217Z,24.03
2023-08-09T14:02:37.725Z,24.04
2023-08-09T14:05:15.587Z,24.25
2023-08-09T14:07:44.588Z,24.36
2023-08-09T14:10:12.846Z,24.29
2023-08-09T14:12:40.922Z,24.21
2023-08-09T14:15:10.206Z,24.20
2023-08-09T14:17:38.519Z,24.02
2023-08-09T14:20:07.166Z,23.80
2023-08-09T14:22:35.358Z,23.30
2023-08-09T14:25:03.592Z,23.48
2023-08-09T14:27:31.567Z,23.43
2023-08-09T14:29:59.782Z,23.23
2023-08-09T14:32:27.771Z,23.03
2023-08-09T14:34:55.946Z,23.14
2023-08-09T14:37:24.213Z,22.58
2023-08-09T14:39:52.087Z,22.38
2023-08-09T14:42:20.254Z,22.85
2023-08-09T14:44:48.443Z,23.13
2023-08-09T14:47:18.426Z,23.10
2023-08-09T14:49:47.206Z,23.19
2023-08-09T14:52:15.503Z,22.78
2023-08-09T14:54:43.441Z,22.31
2023-08-09T14:57:11.619Z,22.47
2023-08-09T14:59:39.863Z,22.65
2023-08-09T15:02:08.947Z,22.60
2023-08-09T15:04:39.799Z,22.70
2023-08-09T15:07:10.056Z,22.86
2023-08-09T15:09:38.481Z,22.93
2023-08-09T15:12:07.261Z,22.78
2023-08-09T15:14:36.439Z,22.88
2023-08-09T15:17:24.569Z,22.93
2023-08-09T15:20:04.565Z,22.95
2023-08-09T15:22:32.831Z,22.85
2023-08-09T15:25:01.968Z,22.78
2023-08-09T15:27:30.276Z,22.83
2023-08-09T15:29:58.845Z,22.91
2023-08-09T15:32:27.250Z,22.98
2023-08-09T15:34:55.510Z,23.08
2023-08-09T15:37:23.743Z,23.12
2023-08-09T15:39:51.993Z,23.00
2023-08-09T15:42:20.317Z,22.55
2023-08-09T15:44:48.200Z,21.90
2023-08-09T15:47:19.434Z,21.55
2023-08-09T15:49:49.331Z,21.45
2023-08-09T15:52:21.418Z,21.43
2023-08-09T15:54:49.666Z,21.65
2023-08-09T15:57:18.169Z,21.82
2023-08-09T15:59:46.798Z,21.69
2023-08-09T16:02:17.154Z,21.52
2023-08-09T16:04:45.584Z,21.13
2023-08-09T16:07:13.766Z,20.90
2023-08-09T16:09:41.979Z,20.94
2023-08-09T16:12:12.190Z,20.84
2023-08-09T16:14:41.256Z,20.92
2023-08-09T16:17:09.495Z,20.96
2023-08-09T16:19:37.799Z,20.97
2023-08-09T16:22:06.844Z,20.94
2023-08-09T16:24:35.078Z,20.87
2023-08-09T16:27:03.754Z,20.68
2023-08-09T16:29:33.834Z,20.66
2023-08-09T16:32:02.088Z,20.76
2023-08-09T16:34:30.511Z,20.79
2023-08-09T16:36:58.521Z,20.87
2023-08-09T16:39:26.793Z,20.97
2023-08-09T16:41:55.054Z,21.06
2023-08-09T16:44:23.297Z,21.17
2023-08-09T16:46:51.570Z,21.17
2023-08-09T16:49:19.871Z,21.16
2023-08-09T16:51:48.135Z,21.13
2023-08-09T16:54:17.426Z,20.84
2023-08-09T16:56:46.079Z,20.72
2023-08-09T16:59:14.387Z,20.65
2023-08-09T17:01:42.642Z,20.48
2023-08-09T17:04:10.939Z,20.51
2023-08-09T17:06:38.887Z,20.48
2023-08-09T17:09:07.122Z,20.32
2023-08-09T17:11:35.350Z,20.14
2023-08-09T17:14:03.764Z,20.03
2023-08-09T17:16:31.720Z,19.97
2023-08-09T17:18:59.988Z,19.95
2023-08-09T17:21:28.284Z,19.94
2023-08-09T17:23:56.511Z,19.98
2023-08-09T17:26:24.831Z,19.92
2023-08-09T17:28:53.035Z,19.85
2023-08-09T17:31:21.245Z,19.87
2023-08-09T17:33:49.600Z,19.87
2023-08-09T17:36:17.917Z,19.78
2023-08-09T17:38:50.213Z,19.61
2023-08-09T17:41:18.566Z,19.54
2023-08-09T17:43:46.819Z,19.57
2023-08-09T17:46:15.302Z,19.52
2023-08-09T17:48:43.190Z,19.53
2023-08-09T17:51:11.424Z,19.51
2023-08-09T17:53:39.836Z,19.39
2023-08-09T17:56:09.921Z,19.31
2023-08-09T17:58:38.214Z,19.31
2023-08-09T18:01:06.874Z,19.25
2023-08-09T18:03:35.180Z,19.19
2023-08-09T18:06:04.538Z,19.13
2023-08-09T18:08:33.106Z,19.01
2023-08-09T18:11:01.022Z,18.97
2023-08-09T18:13:29.273Z,18.96
2023-08-09T18:15:57.690Z,18.92
2023-08-09T18:18:26.064Z,18.87
2023-08-09T18:20:54.354Z,18.90
2023-08-09T18:23:22.636Z,18.78
2023-08-09T18:25:50.900Z,18.69
2023-08-09T18:28:19.154Z,18.61
2023-08-09T18:30:47.578Z,18.55
2023-08-09T18:33:16.145Z,18.50
2023-08-09T18:35:44.282Z,18.43
2023-08-09T18:38:12.653Z,18.33
2023-08-09T18:40:40.825Z,18.30
2023-08-09T18:43:09.082Z,18.24
2023-08-09T18:45:37.486Z,18.17
2023-08-09T18:48:06.079Z,18.07
2023-08-09T18:50:34.144Z,17.93
2023-08-09T18:53:02.465Z,17.78
2023-08-09T18:55:30.926Z,17.65
2023-08-09T18:57:59.512Z,17.54
2023-08-09T19:00:27.537Z,17.40
2023-08-09T19:02:55.909Z,17.30
2023-08-09T19:05:24.279Z,17.14
2023-08-09T19:07:52.528Z,16.98
2023-08-09T19:10:20.870Z,16.90
2023-08-09T19:12:50.607Z,16.80
2023-08-09T19:15:19.789Z,16.70
2023-08-09T19:17:48.182Z,16.57
2023-08-09T19:20:17.824Z,16.50
2023-08-09T19:22:46.050Z,16.39
2023-08-09T19:25:14.443Z,16.28
2023-08-09T19:27:42.822Z,16.18
2023-08-09T19:30:11.285Z,16.04
2023-08-09T19:32:39.768Z,15.96
2023-08-09T19:35:08.519Z,15.87
2023-08-09T19:37:38.122Z,15.80
2023-08-09T19:40:08.788Z,15.74
2023-08-09T19:42:37.868Z,15.68
2023-08-09T19:45:06.629Z,15.57
2023-08-09T19:47:34.511Z,15.49
2023-08-09T19:50:02.802Z,15.43
2023-08-09T19:52:31.052Z,15.40
2023-08-09T19:54:59.389Z,15.32
2023-08-09T19:57:28.091Z,15.23
2023-08-09T19:59:56.022Z,15.18
2023-08-09T20:02:24.289Z,15.13
2023-08-09T20:04:52.556Z,15.08
2023-08-09T20:07:20.785Z,15.00
2023-08-09T20:09:49.424Z,14.94
2023-08-09T20:12:17.611Z,14.89
2023-08-09T20:14:45.867Z,14.86
2023-08-09T20:17:14.518Z,14.80
2023-08-09T20:19:42.438Z,14.72
2023-08-09T20:22:10.637Z,14.70
2023-08-09T20:24:44.375Z,14.64
2023-08-09T20:27:13.734Z,14.57
2023-08-09T20:29:42.337Z,14.53
2023-08-09T20:32:10.706Z,14.45
2023-08-09T20:34:38.986Z,14.42
2023-08-09T20:37:07.524Z,14.39
2023-08-09T20:39:36.270Z,14.40
2023-08-09T20:42:04.561Z,14.37
2023-08-09T20:44:36.720Z,14.33
2023-08-09T20:47:06.960Z,14.33
2023-08-09T20:49:35.909Z,14.28
2023-08-09T20:52:05.542Z,14.21
2023-08-09T20:54:33.943Z,14.20
2023-08-09T20:57:02.455Z,14.16
2023-08-09T20:59:34.756Z,14.15
2023-08-09T21:02:03.229Z,14.18
2023-08-09T21:04:31.424Z,14.19
2023-08-09T21:06:59.776Z,14.24
2023-08-09T21:09:29.031Z,14.25
2023-08-09T21:11:57.320Z,14.26
2023-08-09T21:14:25.562Z,14.22
2023-08-09T21:16:53.849Z,14.20
2023-08-09T21:19:22.126Z,14.18
2023-08-09T21:21:50.475Z,14.21
2023-08-09T21:26:51.816Z,14.20
2023-08-09T21:29:24.218Z,14.13
2023-08-09T21:31:52.926Z,14.07
2023-08-09T21:34:20.966Z,14.02
2023-08-09T21:36:49.225Z,13.97
2023-08-09T21:39:17.486Z,13.91
2023-08-09T21:41:45.721Z,13.86
2023-08-09T21:44:13.936Z,13.78
2023-08-09T21:46:42.411Z,13.73
2023-08-09T21:49:10.635Z,13.70
2023-08-09T21:51:38.851Z,13.65
2023-08-09T21:54:07.378Z,13.60
2023-08-09T21:56:35.705Z,13.57
2023-08-09T21:59:04.752Z,13.54
2023-08-09T22:01:33.146Z,13.49
2023-08-09T22:04:01.625Z,13.48
2023-08-09T22:06:29.945Z,13.48
2023-08-09T22:08:58.160Z,13.47
2023-08-09T22:11:26.430Z,13.46
2023-08-09T22:13:54.703Z,13.47
2023-08-09T22:16:25.446Z,13.52
2023-08-09T22:18:54.169Z,13.62
2023-08-09T22:21:22.529Z,13.72
2023-08-09T22:23:51.814Z,13.78
2023-08-09T22:26:21.791Z,13.88
2023-08-09T22:28:50.556Z,13.97
2023-08-09T22:31:18.464Z,14.06
2023-08-09T22:33:46.698Z,14.12
2023-08-09T22:36:14.955Z,14.16
2023-08-09T22:38:43.229Z,14.20
2023-08-09T22:41:11.539Z,14.24
2023-08-09T22:43:39.862Z,14.28
2023-08-09T22:46:08.217Z,14.33
2023-08-09T22:48:36.827Z,14.38
2023-08-09T22:51:06.012Z,14.41
2023-08-09T22:53:34.543Z,14.40
2023-08-09T22:56:04.205Z,14.43
2023-08-09T22:58:32.454Z,14.44
2023-08-09T23:01:01.613Z,14.47
2023-08-09T23:03:30.056Z,14.49
2023-08-09T23:05:58.360Z,14.51
2023-08-09T23:08:26.830Z,14.55
2023-08-09T23:10:55.535Z,14.58
2023-08-09T23:13:23.564Z,14.60
2023-08-09T23:15:51.830Z,14.57
2023-08-09T23:18:20.083Z,14.57
2023-08-09T23:20:48.352Z,14.58
2023-08-09T23:23:16.810Z,14.62
2023-08-09T23:25:45.064Z,14.63
2023-08-09T23:28:13.461Z,14.61
2023-08-09T23:30:41.894Z,14.59
2023-08-09T23:33:10.268Z,14.59
2023-08-09T23:35:38.949Z,14.58
2023-08-09T23:38:07.144Z,14.61
2023-08-09T23:40:42.400Z,14.59
2023-08-09T23:43:10.598Z,14.61
2023-08-09T23:45:39.210Z,14.61
2023-08-09T23:48:09.085Z,14.60
2023-08-09T23:50:37.407Z,14.57
2023-08-09T23:53:05.673Z,14.55
2023-08-09T23:55:34.042Z,14.56
2023-08-09T23:58:02.498Z,14.55
